This is the latest recevied weather packets stored in our database for station/object IU4KCH-20. If no packets are shown the sender has not sent any weather packets the latest 1 day(s).
| Time | Temp. | Humidity | Pressure | Rain* | Wind** | Luminosity | Snow |
|---|---|---|---|---|---|---|---|
| 1777732102 | 41.67° C | 14% | 1018.4 hPa | - | - | - | - |
| 1777731201 | 40° C | 15% | 1018.7 hPa | - | - | - | - |
| 1777730300 | 38.33° C | 14% | 1019 hPa | - | - | - | - |
| 1777729399 | 41.11° C | 13% | 1019.2 hPa | - | - | - | - |
| 1777728498 | 41.67° C | 14% | 1019.4 hPa | - | - | - | - |
| 1777727598 | 40.56° C | 14% | 1019.6 hPa | - | - | - | - |
| 1777726697 | 37.78° C | 15% | 1020 hPa | - | - | - | - |
| 1777725796 | 37.78° C | 15% | 1020.1 hPa | - | - | - | - |
| 1777724895 | 37.22° C | 17% | 1020.4 hPa | - | - | - | - |
| 1777723093 | 27.78° C | 23% | 1020.7 hPa | - | - | - | - |
| 1777722193 | 26.67° C | 26% | 1021 hPa | - | - | - | - |
| 1777721292 | 26.11° C | 26% | 1021.2 hPa | - | - | - | - |
| 1777720391 | 25° C | 27% | 1021.5 hPa | - | - | - | - |
| 1777719490 | 24.44° C | 29% | 1021.8 hPa | - | - | - | - |
| 1777718590 | 25° C | 29% | 1022 hPa | - | - | - | - |
| 1777717689 | 29.44° C | 24% | 1022.5 hPa | - | - | - | - |
| 1777716788 | 22.78° C | 33% | 1022.5 hPa | - | - | - | - |
| 1777715887 | 21.67° C | 35% | 1022.7 hPa | - | - | - | - |
| 1777714986 | 20.56° C | 35% | 1023 hPa | - | - | - | - |
| 1777714085 | 20° C | 41% | 1023 hPa | - | - | - | - |
| 1777713184 | 19.44° C | 40% | 1023.2 hPa | - | - | - | - |
| 1777712283 | 18.89° C | 41% | 1023.4 hPa | - | - | - | - |
| 1777711383 | 18.33° C | 42% | 1023.4 hPa | - | - | - | - |
| 1777710485 | 17.78° C | 42% | 1023.4 hPa | - | - | - | - |
| 1777709581 | 17.22° C | 47% | 1023.5 hPa | - | - | - | - |
* Rain since midnight (hover to see other rain measurements)
** Current wind speed in m/s (hover to see current wind gust speed)